createdAt,value
2017-10-19T00:00:17.835Z,0
2017-10-19T00:00:58.197Z,0
2017-10-19T00:01:38.647Z,0
2017-10-19T00:02:19.054Z,0
2017-10-19T00:02:59.490Z,0
2017-10-19T00:03:39.906Z,0
2017-10-19T00:04:20.326Z,0
2017-10-19T00:05:00.768Z,0
2017-10-19T00:05:41.120Z,0
2017-10-19T00:06:21.680Z,0
2017-10-19T00:07:02.058Z,0
2017-10-19T00:07:42.456Z,0
2017-10-19T00:08:22.911Z,0
2017-10-19T00:09:03.329Z,0
2017-10-19T00:09:43.713Z,0
2017-10-19T00:10:24.149Z,0
2017-10-19T00:11:04.550Z,0
2017-10-19T00:11:44.968Z,0
2017-10-19T00:12:25.369Z,0
2017-10-19T00:13:05.843Z,0
2017-10-19T00:13:46.196Z,0
2017-10-19T00:14:26.584Z,0
2017-10-19T00:15:07.000Z,0
2017-10-19T00:15:47.385Z,0
2017-10-19T00:16:27.783Z,0
2017-10-19T00:17:08.225Z,0
2017-10-19T00:17:48.599Z,0
2017-10-19T00:18:29.044Z,0
2017-10-19T00:19:09.493Z,0
2017-10-19T00:19:49.930Z,0
2017-10-19T00:20:30.374Z,0
2017-10-19T00:21:10.761Z,0
2017-10-19T00:21:51.134Z,0
2017-10-19T00:22:31.521Z,0
2017-10-19T00:23:11.949Z,0
2017-10-19T00:23:52.441Z,0
2017-10-19T00:24:32.915Z,0
2017-10-19T00:25:13.320Z,0
2017-10-19T00:25:53.747Z,0
2017-10-19T00:26:34.125Z,0
2017-10-19T00:27:14.556Z,0
2017-10-19T00:27:55.080Z,0
2017-10-19T00:28:35.491Z,0
2017-10-19T00:29:16.047Z,0
2017-10-19T00:29:56.287Z,0
2017-10-19T00:30:36.732Z,0
2017-10-19T00:31:17.121Z,0
2017-10-19T00:31:57.546Z,0
2017-10-19T00:32:37.975Z,0
2017-10-19T00:33:18.383Z,0
2017-10-19T00:33:58.777Z,0
2017-10-19T00:34:39.283Z,0
2017-10-19T00:35:19.722Z,0
2017-10-19T00:36:00.196Z,0
2017-10-19T00:36:40.618Z,0
2017-10-19T00:37:21.009Z,0
2017-10-19T00:38:01.464Z,0
2017-10-19T00:38:41.906Z,0
2017-10-19T00:39:22.323Z,0
2017-10-19T00:40:02.838Z,0
2017-10-19T00:40:43.261Z,0
2017-10-19T00:41:23.691Z,0
2017-10-19T00:42:04.053Z,0
2017-10-19T00:42:44.514Z,0
2017-10-19T00:43:24.938Z,0
2017-10-19T00:44:05.387Z,0
2017-10-19T00:44:45.864Z,0
2017-10-19T00:45:26.231Z,0
2017-10-19T00:46:06.661Z,0
2017-10-19T00:46:47.164Z,0
2017-10-19T00:47:27.486Z,0
2017-10-19T00:48:07.941Z,0
2017-10-19T00:48:48.307Z,0
2017-10-19T00:49:28.787Z,0
2017-10-19T00:50:09.105Z,0
2017-10-19T00:50:49.495Z,0
2017-10-19T00:51:29.954Z,0
2017-10-19T00:52:10.444Z,0
2017-10-19T00:52:50.767Z,0
2017-10-19T00:53:31.242Z,0
2017-10-19T00:54:11.650Z,0
2017-10-19T00:54:52.048Z,0
2017-10-19T00:55:32.451Z,0
2017-10-19T00:56:12.866Z,0
2017-10-19T00:56:53.275Z,0
2017-10-19T00:57:33.701Z,0
2017-10-19T00:58:14.102Z,0
2017-10-19T00:58:54.624Z,0
2017-10-19T00:59:35.045Z,0
2017-10-19T01:00:15.452Z,0
2017-10-19T01:00:55.883Z,0
2017-10-19T01:01:36.313Z,0
2017-10-19T01:02:16.727Z,0
2017-10-19T01:02:57.063Z,0
2017-10-19T01:03:37.477Z,0
2017-10-19T01:04:17.943Z,0
2017-10-19T01:04:58.349Z,0
2017-10-19T01:05:38.796Z,0
2017-10-19T01:06:19.241Z,0
2017-10-19T01:06:59.573Z,0
2017-10-19T01:07:39.973Z,0
2017-10-19T01:08:20.423Z,0
2017-10-19T01:09:00.868Z,0
2017-10-19T01:09:41.281Z,0
2017-10-19T01:10:21.656Z,0
2017-10-19T01:11:02.073Z,0
2017-10-19T01:11:42.560Z,0
2017-10-19T01:12:23.012Z,0
2017-10-19T01:13:03.393Z,0
2017-10-19T01:13:43.917Z,0
2017-10-19T01:14:24.323Z,0
2017-10-19T01:15:04.724Z,0
2017-10-19T01:15:45.222Z,0
2017-10-19T01:16:25.668Z,0
2017-10-19T01:17:06.110Z,0
2017-10-19T01:17:46.513Z,0
2017-10-19T01:18:26.964Z,0
2017-10-19T01:19:07.498Z,0
2017-10-19T01:19:47.940Z,0
2017-10-19T01:20:28.303Z,0
2017-10-19T01:21:08.814Z,0
2017-10-19T01:21:49.214Z,0
2017-10-19T01:22:29.691Z,0
2017-10-19T01:23:10.192Z,0
2017-10-19T01:23:50.537Z,0
2017-10-19T01:24:30.962Z,0
2017-10-19T01:25:11.414Z,0
2017-10-19T01:25:51.850Z,0
2017-10-19T01:26:32.298Z,0
2017-10-19T01:27:12.664Z,0
2017-10-19T01:27:53.089Z,0
2017-10-19T01:28:33.495Z,0
2017-10-19T01:29:13.878Z,0
2017-10-19T01:29:54.303Z,0
2017-10-19T01:30:34.702Z,0
2017-10-19T01:31:15.129Z,0
2017-10-19T01:31:55.537Z,0
2017-10-19T01:32:35.929Z,0
2017-10-19T01:33:16.351Z,0
2017-10-19T01:33:56.735Z,0
2017-10-19T01:34:37.172Z,0
2017-10-19T01:35:17.530Z,0
2017-10-19T01:35:58.005Z,0
2017-10-19T01:36:38.458Z,0
2017-10-19T01:37:18.868Z,0
2017-10-19T01:37:59.268Z,0
2017-10-19T01:38:39.706Z,0
2017-10-19T01:39:20.150Z,0
2017-10-19T01:40:00.577Z,0
2017-10-19T01:40:41.002Z,0
2017-10-19T01:41:21.386Z,0
2017-10-19T01:42:01.872Z,0
2017-10-19T01:42:42.256Z,0
2017-10-19T01:43:22.691Z,0
2017-10-19T01:44:03.082Z,0
2017-10-19T01:44:43.487Z,0
2017-10-19T01:45:23.982Z,0
2017-10-19T01:46:04.404Z,0
2017-10-19T01:46:44.833Z,0
2017-10-19T01:47:25.269Z,0
2017-10-19T01:48:05.639Z,0
2017-10-19T01:48:46.085Z,0
2017-10-19T01:49:26.497Z,0
2017-10-19T01:50:06.901Z,0
2017-10-19T01:50:47.354Z,0
2017-10-19T01:51:27.765Z,0
2017-10-19T01:52:08.175Z,0
2017-10-19T01:52:48.629Z,0
2017-10-19T01:53:29.015Z,0
2017-10-19T01:54:09.427Z,0
2017-10-19T01:54:49.877Z,0
2017-10-19T01:55:31.215Z,0
2017-10-19T01:56:11.684Z,0
2017-10-19T01:56:52.104Z,0
2017-10-19T01:59:18.552Z,0
2017-10-19T02:01:16.697Z,0
2017-10-19T02:01:57.112Z,0
2017-10-19T02:02:37.575Z,0
2017-10-19T02:03:17.988Z,0
2017-10-19T02:03:58.359Z,0
2017-10-19T02:04:38.730Z,0
2017-10-19T02:05:19.175Z,0
2017-10-19T02:05:59.665Z,0
2017-10-19T02:06:40.027Z,0
2017-10-19T02:07:20.475Z,0
2017-10-19T02:08:00.869Z,0
2017-10-19T02:08:41.308Z,0
2017-10-19T02:09:21.731Z,0
2017-10-19T02:10:02.195Z,0
2017-10-19T02:10:42.609Z,0
2017-10-19T02:11:23.057Z,0
2017-10-19T02:12:03.415Z,0
2017-10-19T02:12:43.890Z,0
2017-10-19T02:13:24.276Z,0
2017-10-19T02:14:04.712Z,0
2017-10-19T02:14:45.169Z,0
2017-10-19T02:15:25.718Z,0
2017-10-19T02:16:06.092Z,0
2017-10-19T02:16:46.456Z,0
2017-10-19T02:17:26.872Z,0
2017-10-19T02:18:07.220Z,0
2017-10-19T02:18:47.636Z,0
2017-10-19T02:19:28.096Z,0
2017-10-19T02:20:08.418Z,0
2017-10-19T02:20:48.821Z,0
2017-10-19T02:21:29.221Z,0
2017-10-19T02:22:09.753Z,0
2017-10-19T02:22:50.058Z,0
2017-10-19T02:23:30.509Z,0
2017-10-19T02:24:10.903Z,0
2017-10-19T02:24:51.349Z,0
2017-10-19T02:25:31.771Z,0
2017-10-19T02:26:12.140Z,0
2017-10-19T02:26:52.538Z,0
2017-10-19T02:27:33.110Z,0
2017-10-19T02:28:13.516Z,0
2017-10-19T02:28:53.872Z,0
2017-10-19T02:29:34.281Z,0
2017-10-19T02:30:14.725Z,0
2017-10-19T02:30:55.179Z,0
2017-10-19T02:31:35.527Z,0
2017-10-19T02:32:16.011Z,0
2017-10-19T02:32:56.481Z,0
2017-10-19T02:33:36.950Z,0
2017-10-19T02:34:17.379Z,0
2017-10-19T02:34:57.758Z,0
2017-10-19T02:35:38.195Z,0
2017-10-19T02:36:18.624Z,0
2017-10-19T02:36:59.012Z,0
2017-10-19T02:37:39.479Z,0
2017-10-19T02:38:19.991Z,0
2017-10-19T02:39:00.308Z,0
2017-10-19T02:39:40.703Z,0
2017-10-19T02:40:21.181Z,0
2017-10-19T02:41:01.565Z,0
2017-10-19T02:41:41.948Z,0
2017-10-19T02:42:22.351Z,0
2017-10-19T02:43:02.771Z,0
2017-10-19T02:43:43.188Z,0
2017-10-19T02:44:23.545Z,0
2017-10-19T02:45:03.923Z,0
2017-10-19T02:45:44.304Z,0
2017-10-19T02:46:24.753Z,0
2017-10-19T02:47:05.166Z,0
2017-10-19T02:47:45.678Z,0
2017-10-19T02:48:26.013Z,0
2017-10-19T02:49:06.452Z,0
2017-10-19T02:49:46.876Z,0
2017-10-19T02:50:27.418Z,0
2017-10-19T02:51:07.844Z,0
2017-10-19T02:51:48.247Z,0
2017-10-19T02:52:28.793Z,0
2017-10-19T02:53:09.123Z,0
2017-10-19T02:53:49.483Z,0
2017-10-19T02:54:29.876Z,0
2017-10-19T02:55:10.258Z,0
2017-10-19T02:55:50.628Z,0
2017-10-19T02:56:31.066Z,0
2017-10-19T02:57:11.427Z,0
2017-10-19T02:57:51.832Z,0
2017-10-19T02:58:32.333Z,0
2017-10-19T02:59:12.743Z,0
2017-10-19T02:59:53.116Z,0
2017-10-19T03:00:33.554Z,0
2017-10-19T03:01:13.964Z,0
2017-10-19T03:01:54.348Z,0
2017-10-19T03:02:34.775Z,0
2017-10-19T03:03:15.210Z,0
2017-10-19T03:03:55.654Z,0
2017-10-19T03:04:36.099Z,0
2017-10-19T03:05:16.494Z,0
2017-10-19T03:05:57.003Z,0
2017-10-19T03:06:37.387Z,0
2017-10-19T03:07:17.832Z,0
2017-10-19T03:07:58.265Z,0
2017-10-19T03:08:38.782Z,0
2017-10-19T03:09:19.188Z,0
2017-10-19T03:09:59.597Z,0
2017-10-19T03:10:40.034Z,0
2017-10-19T03:11:20.476Z,0
2017-10-19T03:12:01.012Z,0
2017-10-19T03:12:41.465Z,0
2017-10-19T03:13:21.913Z,0
2017-10-19T03:14:02.303Z,0
2017-10-19T03:14:42.788Z,0
2017-10-19T03:15:23.180Z,0
2017-10-19T03:17:30.888Z,0
2017-10-19T03:19:42.488Z,0
2017-10-19T03:20:25.361Z,0
2017-10-19T03:21:06.355Z,0
2017-10-19T03:21:46.485Z,0
2017-10-19T03:22:27.035Z,0
2017-10-19T03:23:07.657Z,0
2017-10-19T03:23:48.375Z,0
2017-10-19T03:24:29.017Z,0
2017-10-19T03:25:09.754Z,0
2017-10-19T03:25:50.303Z,0
2017-10-19T03:26:30.954Z,0
2017-10-19T03:27:11.573Z,0
2017-10-19T03:27:52.364Z,0
2017-10-19T03:28:32.992Z,0
2017-10-19T03:29:14.358Z,0
2017-10-19T03:29:54.860Z,0
2017-10-19T03:30:35.077Z,0
2017-10-19T03:31:17.164Z,0
2017-10-19T03:31:57.720Z,0
2017-10-19T03:32:38.262Z,0
2017-10-19T03:33:18.900Z,0
2017-10-19T03:33:59.719Z,0
2017-10-19T03:34:40.446Z,0
2017-10-19T03:35:21.081Z,0
2017-10-19T03:36:02.360Z,0
2017-10-19T03:36:42.859Z,0
2017-10-19T03:37:27.035Z,0
2017-10-19T03:38:07.687Z,0
2017-10-19T03:38:49.121Z,0
2017-10-19T03:39:29.691Z,0
2017-10-19T03:40:10.364Z,0
2017-10-19T03:40:51.017Z,0
2017-10-19T03:41:34.645Z,0
2017-10-19T03:42:15.193Z,0
2017-10-19T03:42:55.945Z,0
2017-10-19T03:43:37.372Z,0
2017-10-19T03:44:17.989Z,0
2017-10-19T03:44:58.591Z,0
2017-10-19T03:45:40.400Z,0
2017-10-19T03:46:20.937Z,0
2017-10-19T03:47:01.554Z,0
2017-10-19T03:47:42.235Z,0
2017-10-19T03:48:23.013Z,0
2017-10-19T03:49:10.219Z,0
2017-10-19T03:49:50.873Z,0
2017-10-19T03:50:32.255Z,0
2017-10-19T03:51:12.887Z,0
2017-10-19T03:51:54.364Z,0
2017-10-19T03:52:34.306Z,0
2017-10-19T03:53:15.036Z,0
2017-10-19T03:53:56.531Z,0
2017-10-19T03:54:38.364Z,0
2017-10-19T03:55:19.406Z,0
2017-10-19T03:56:01.010Z,0
2017-10-19T03:56:45.162Z,0
2017-10-19T03:57:25.838Z,0
2017-10-19T03:58:07.003Z,0
2017-10-19T03:58:47.863Z,0
2017-10-19T03:59:28.413Z,0
2017-10-19T04:00:09.593Z,0
2017-10-19T04:00:50.231Z,0
2017-10-19T04:01:30.883Z,0
2017-10-19T04:41:27.564Z,0
2017-10-19T04:42:08.841Z,0
2017-10-19T04:42:49.487Z,0
2017-10-19T04:43:30.147Z,0
2017-10-19T04:44:10.897Z,0
2017-10-19T04:44:52.892Z,0
2017-10-19T04:45:32.818Z,0
2017-10-19T04:46:13.340Z,0
2017-10-19T04:46:55.747Z,0
2017-10-19T04:47:36.373Z,0
2017-10-19T04:48:17.070Z,0
2017-10-19T04:48:58.394Z,0
2017-10-19T04:49:38.422Z,0
2017-10-19T04:50:19.131Z,0
2017-10-19T04:50:59.568Z,0
2017-10-19T04:51:40.210Z,0
2017-10-19T04:52:20.922Z,0
2017-10-19T04:53:01.597Z,0
2017-10-19T04:53:42.079Z,0
2017-10-19T04:54:22.766Z,0
2017-10-19T04:55:04.317Z,0
2017-10-19T04:55:44.896Z,0
2017-10-19T04:56:25.621Z,0
2017-10-19T04:57:06.275Z,0
2017-10-19T04:57:48.395Z,0
2017-10-19T04:58:28.237Z,0
2017-10-19T04:59:08.950Z,0
2017-10-19T04:59:49.604Z,0
2017-10-19T05:00:30.258Z,0
2017-10-19T05:01:10.916Z,0
2017-10-19T05:01:52.078Z,0
2017-10-19T05:02:33.630Z,0
2017-10-19T05:03:14.405Z,0
2017-10-19T05:03:55.775Z,0
2017-10-19T05:04:37.179Z,0
2017-10-19T05:05:17.880Z,0
2017-10-19T05:05:59.680Z,0
2017-10-19T05:06:40.333Z,0
2017-10-19T05:07:21.904Z,0
2017-10-19T05:08:01.631Z,0
2017-10-19T05:08:42.291Z,0
2017-10-19T05:09:22.843Z,0
2017-10-19T05:10:04.499Z,0
2017-10-19T05:10:45.276Z,0
2017-10-19T05:11:25.800Z,0
2017-10-19T05:12:06.584Z,0
2017-10-19T05:12:47.127Z,0
2017-10-19T05:13:28.505Z,0
2017-10-19T05:14:08.928Z,0
2017-10-19T05:14:49.482Z,0
2017-10-19T05:15:30.256Z,0
2017-10-19T05:16:11.728Z,0
2017-10-19T05:16:52.283Z,0
2017-10-19T05:17:33.012Z,0
2017-10-19T05:18:14.405Z,0
2017-10-19T05:18:55.914Z,0
2017-10-19T05:19:36.529Z,0
2017-10-19T05:20:17.213Z,0
2017-10-19T05:20:58.756Z,0
2017-10-19T05:21:39.445Z,0
2017-10-19T05:22:20.473Z,0
2017-10-19T05:23:01.228Z,0
2017-10-19T05:23:41.884Z,0
2017-10-19T05:24:22.534Z,0
2017-10-19T05:25:03.986Z,0
2017-10-19T05:25:44.638Z,0
2017-10-19T05:26:26.029Z,0
2017-10-19T05:27:06.587Z,0
2017-10-19T05:27:47.341Z,0
2017-10-19T05:28:27.887Z,0
2017-10-19T05:29:09.039Z,0
2017-10-19T05:29:49.606Z,4
2017-10-19T05:30:30.142Z,0
2017-10-19T05:31:13.664Z,0
2017-10-19T05:34:34.276Z,4
2017-10-19T05:35:57.373Z,4
2017-10-19T05:38:28.278Z,4
2017-10-19T05:39:20.721Z,8
2017-10-19T05:40:16.260Z,4
2017-10-19T05:41:09.732Z,8
2017-10-19T05:44:03.623Z,12
2017-10-19T05:45:00.036Z,12
2017-10-19T05:45:56.221Z,16
2017-10-19T05:46:58.487Z,16
2017-10-19T05:51:33.645Z,32
2017-10-19T05:52:26.855Z,36
2017-10-19T05:53:19.200Z,44
2017-10-19T05:54:16.765Z,44
2017-10-19T05:55:11.643Z,48
2017-10-19T05:56:06.401Z,56
2017-10-19T05:57:00.420Z,60
2017-10-19T05:57:53.872Z,68
2017-10-19T05:58:50.245Z,72
2017-10-19T05:59:45.979Z,80
2017-10-19T06:00:41.158Z,84
2017-10-19T06:01:39.270Z,92
2017-10-19T06:02:33.679Z,100
2017-10-19T06:03:29.791Z,112
2017-10-19T06:06:20.075Z,140
2017-10-19T06:07:12.817Z,148
2017-10-19T06:08:07.089Z,160
2017-10-19T06:09:00.992Z,176
2017-10-19T06:09:58.443Z,188
2017-10-19T06:10:52.303Z,200
2017-10-19T06:11:46.983Z,216
2017-10-19T06:12:41.543Z,224
2017-10-19T06:13:37.274Z,236
2017-10-19T06:14:31.846Z,252
2017-10-19T06:15:26.765Z,264
2017-10-19T06:16:20.164Z,276
2017-10-19T06:17:14.801Z,296
2017-10-19T06:18:10.127Z,320
2017-10-19T06:18:58.248Z,336
2017-10-19T06:19:38.267Z,348
2017-10-19T06:20:18.867Z,364
2017-10-19T06:21:00.495Z,376
2017-10-19T06:21:41.968Z,380
2017-10-19T06:22:22.311Z,388
2017-10-19T06:23:03.926Z,400
2017-10-19T06:23:45.278Z,420
2017-10-19T06:24:26.719Z,444
2017-10-19T06:25:08.205Z,472
2017-10-19T06:27:58.112Z,688
2017-10-19T06:31:00.618Z,1016
2017-10-19T06:31:58.503Z,1124
2017-10-19T06:32:57.012Z,1232
2017-10-19T06:33:52.528Z,1376
2017-10-19T06:34:50.873Z,1604
2017-10-19T06:35:47.111Z,1728
2017-10-19T06:36:45.134Z,1780
2017-10-19T06:37:33.019Z,1728
2017-10-19T06:38:15.876Z,1632
2017-10-19T06:39:00.175Z,1656
2017-10-19T06:39:42.184Z,1868
2017-10-19T06:40:24.156Z,1892
2017-10-19T06:41:06.524Z,1872
2017-10-19T06:41:49.270Z,1800
2017-10-19T06:42:32.585Z,1772
2017-10-19T06:43:14.529Z,1668
2017-10-19T06:43:55.359Z,1360
2017-10-19T06:44:35.875Z,1492
2017-10-19T06:45:18.042Z,1824
2017-10-19T06:45:58.450Z,1944
2017-10-19T06:46:40.524Z,2044
2017-10-19T06:47:20.911Z,2104
2017-10-19T06:48:02.673Z,2204
2017-10-19T06:48:43.483Z,2404
2017-10-19T06:51:13.974Z,1528
2017-10-19T06:52:13.665Z,1720
2017-10-19T06:53:07.313Z,2464
2017-10-19T06:53:53.900Z,3000
2017-10-19T06:54:34.928Z,3244
2017-10-19T06:55:15.236Z,3292
2017-10-19T06:55:58.916Z,3108
2017-10-19T06:56:41.456Z,2916
2017-10-19T06:57:25.392Z,2792
2017-10-19T06:58:11.655Z,2840
2017-10-19T06:58:54.895Z,2836
2017-10-19T06:59:34.920Z,2900
2017-10-19T07:00:16.243Z,2840
2017-10-19T07:00:58.437Z,2896
2017-10-19T07:01:39.895Z,2952
2017-10-19T07:02:22.894Z,2996
2017-10-19T07:11:32.423Z,3248
2017-10-19T07:14:19.811Z,3256
2017-10-19T07:15:01.191Z,3236
2017-10-19T07:15:41.531Z,3356
2017-10-19T07:16:22.525Z,3620
2017-10-19T07:17:02.352Z,3824
2017-10-19T07:17:43.083Z,3876
2017-10-19T07:18:23.774Z,3876
2017-10-19T07:19:08.601Z,3832
2017-10-19T07:21:36.325Z,3812
2017-10-19T07:22:23.359Z,3792
2017-10-19T07:23:05.353Z,3756
2017-10-19T07:23:46.104Z,3724
2017-10-19T07:24:28.244Z,3720
2017-10-19T07:25:09.677Z,3752
2017-10-19T07:25:52.253Z,3764
2017-10-19T07:26:46.310Z,3808
2017-10-19T07:27:29.323Z,3880
2017-10-19T07:28:11.716Z,3932
2017-10-19T07:36:05.269Z,3272
2017-10-19T07:38:44.237Z,2944
2017-10-19T07:39:38.180Z,3036
2017-10-19T07:40:33.987Z,2968
2017-10-19T07:41:31.877Z,2476
2017-10-19T07:43:38.895Z,2084
2017-10-19T07:44:19.315Z,2072
2017-10-19T07:45:00.137Z,2048
2017-10-19T07:45:40.803Z,2040
2017-10-19T07:46:21.270Z,2036
2017-10-19T07:47:02.077Z,2024
2017-10-19T07:47:43.286Z,2020
2017-10-19T07:48:25.176Z,2004
2017-10-19T07:49:05.819Z,2000
2017-10-19T07:49:47.196Z,1996
2017-10-19T07:50:26.700Z,1992
2017-10-19T07:51:07.274Z,1992
2017-10-19T07:51:47.729Z,1988
2017-10-19T07:52:28.570Z,1984
2017-10-19T07:53:09.111Z,1980
2017-10-19T07:53:50.181Z,1976
2017-10-19T07:54:30.733Z,1968
2017-10-19T07:55:11.222Z,1968
2017-10-19T07:55:52.016Z,1968
2017-10-19T07:56:32.702Z,1968
2017-10-19T07:57:13.036Z,1964
2017-10-19T07:57:53.475Z,1968
2017-10-19T07:58:34.040Z,1964
2017-10-19T07:59:15.263Z,1964
2017-10-19T07:59:56.022Z,1964
2017-10-19T08:00:37.481Z,1960
2017-10-19T08:01:18.121Z,1956
2017-10-19T08:02:01.202Z,1948
2017-10-19T08:02:41.988Z,1940
2017-10-19T08:03:22.822Z,1932
2017-10-19T08:04:03.483Z,1916
2017-10-19T08:04:44.019Z,1888
2017-10-19T08:05:24.653Z,1896
2017-10-19T08:06:06.938Z,1924
2017-10-19T08:06:48.392Z,1924
2017-10-19T08:07:29.143Z,1924
2017-10-19T08:08:09.764Z,1916
2017-10-19T08:08:51.318Z,1916
2017-10-19T08:09:31.845Z,1912
2017-10-19T08:10:14.182Z,1908
2017-10-19T08:10:55.779Z,1908
2017-10-19T08:11:35.757Z,1908
2017-10-19T08:12:16.122Z,1908
2017-10-19T08:12:59.101Z,1908
2017-10-19T08:13:39.718Z,1908
2017-10-19T08:14:21.172Z,1908
2017-10-19T08:15:01.709Z,1896
2017-10-19T08:15:42.582Z,1832
2017-10-19T08:16:23.090Z,1840
2017-10-19T08:17:05.093Z,1840
2017-10-19T08:17:45.069Z,1836
2017-10-19T08:18:28.248Z,1832
2017-10-19T08:19:10.276Z,1828
2017-10-19T08:19:50.748Z,1828
2017-10-19T08:20:30.715Z,1828
2017-10-19T08:21:14.107Z,1836
2017-10-19T08:21:53.046Z,1840
2017-10-19T08:22:34.077Z,1832
2017-10-19T08:23:14.609Z,1832
2017-10-19T08:23:56.266Z,1824
2017-10-19T08:24:37.071Z,1824
2017-10-19T08:25:18.666Z,1820
2017-10-19T08:25:59.223Z,1820
2017-10-19T08:26:39.752Z,1820
2017-10-19T08:27:21.390Z,1812
2017-10-19T08:28:01.951Z,1796
2017-10-19T08:28:42.448Z,1796
2017-10-19T08:29:23.712Z,1800
2017-10-19T08:30:04.559Z,1792
2017-10-19T08:30:45.370Z,1788
2017-10-19T08:31:25.751Z,1788
2017-10-19T08:32:06.253Z,1760
2017-10-19T08:32:46.587Z,1776
2017-10-19T08:33:27.216Z,1760
2017-10-19T08:34:07.784Z,1776
2017-10-19T08:34:48.178Z,1788
2017-10-19T08:35:28.693Z,1788
2017-10-19T08:36:09.177Z,1792
2017-10-19T08:36:49.977Z,1752
2017-10-19T08:37:30.393Z,1732
2017-10-19T08:40:18.279Z,1772
2017-10-19T08:41:12.830Z,1772
2017-10-19T08:42:09.486Z,1768
2017-10-19T08:43:05.054Z,1760
2017-10-19T08:43:56.584Z,1748
2017-10-19T08:46:17.744Z,1744
2017-10-19T08:46:59.414Z,1740
2017-10-19T08:47:43.612Z,1736
2017-10-19T08:48:24.152Z,1732
2017-10-19T08:49:04.677Z,1736
2017-10-19T08:49:45.406Z,1744
2017-10-19T08:50:26.698Z,1744
2017-10-19T08:51:07.388Z,1748
2017-10-19T08:51:48.091Z,1752
2017-10-19T08:52:30.424Z,1760
2017-10-19T08:53:12.779Z,1764
2017-10-19T08:53:51.806Z,1764
2017-10-19T08:54:32.328Z,1768
2017-10-19T08:55:12.669Z,1768
2017-10-19T08:55:53.549Z,1776
2017-10-19T08:56:35.079Z,1776
2017-10-19T08:57:15.573Z,1764
2017-10-19T08:57:56.284Z,1764
2017-10-19T08:58:36.678Z,1768
2017-10-19T08:59:17.265Z,1784
2017-10-19T08:59:57.978Z,1792
2017-10-19T09:00:39.208Z,1776
2017-10-19T09:01:20.501Z,1760
2017-10-19T09:02:05.217Z,1756
2017-10-19T09:02:49.350Z,1744
2017-10-19T09:03:30.097Z,1744
2017-10-19T09:04:11.446Z,1744
2017-10-19T09:04:51.292Z,1748
2017-10-19T09:05:32.826Z,1756
2017-10-19T09:06:13.333Z,1756
2017-10-19T09:06:54.261Z,1744
2017-10-19T09:07:35.964Z,1748
2017-10-19T09:08:17.778Z,1756
2017-10-19T09:08:59.174Z,1744
2017-10-19T09:09:39.721Z,1728
2017-10-19T09:10:20.460Z,1720
2017-10-19T09:11:00.972Z,1720
2017-10-19T09:11:41.572Z,1712
2017-10-19T09:12:22.961Z,1732
2017-10-19T09:13:06.100Z,1756
2017-10-19T09:13:52.279Z,1764
2017-10-19T09:14:34.967Z,1756
2017-10-19T09:15:17.134Z,1764
2017-10-19T09:15:57.825Z,1744
2017-10-19T09:16:40.580Z,1736
2017-10-19T09:17:21.045Z,1744
2017-10-19T09:18:02.508Z,1752
2017-10-19T09:21:48.826Z,1700
2017-10-19T09:24:08.777Z,1700
2017-10-19T09:25:09.870Z,1696
2017-10-19T09:26:11.722Z,1696
2017-10-19T09:32:14.377Z,1620
2017-10-19T09:35:12.265Z,1632
2017-10-19T09:37:14.037Z,1608
2017-10-19T09:37:54.892Z,1636
2017-10-19T09:38:35.430Z,1660
2017-10-19T09:39:16.273Z,1680
2017-10-19T09:39:57.847Z,1684
2017-10-19T09:40:38.338Z,1676
2017-10-19T09:41:19.083Z,1672
2017-10-19T09:41:59.338Z,1644
2017-10-19T09:42:41.501Z,1656
2017-10-19T09:43:20.574Z,1628
2017-10-19T09:44:02.641Z,1544
2017-10-19T09:44:44.587Z,1556
2017-10-19T09:45:25.215Z,1548
2017-10-19T09:46:05.565Z,1548
2017-10-19T09:46:46.442Z,1576
2017-10-19T09:47:28.415Z,1588
2017-10-19T09:48:08.889Z,1572
2017-10-19T09:48:50.976Z,1532
2017-10-19T09:49:32.244Z,1532
2017-10-19T09:50:14.321Z,1396
2017-10-19T09:50:55.589Z,1388
2017-10-19T09:51:36.639Z,1520
2017-10-19T09:52:17.282Z,1520
2017-10-19T09:52:58.255Z,1492
2017-10-19T09:53:39.022Z,1444
2017-10-19T09:54:26.621Z,1524
2017-10-19T09:56:52.642Z,1572
2017-10-19T09:57:34.303Z,1564
2017-10-19T09:58:17.257Z,1548
2017-10-19T09:58:57.767Z,1536
2017-10-19T09:59:38.339Z,1520
2017-10-19T10:00:19.751Z,1504
2017-10-19T10:01:00.252Z,1500
2017-10-19T10:01:43.245Z,1512
2017-10-19T10:02:24.115Z,1520
2017-10-19T10:42:11.648Z,1688
2017-10-19T10:43:15.050Z,1664
2017-10-19T10:44:14.136Z,1676
2017-10-19T10:45:13.643Z,1656
2017-10-19T10:48:38.871Z,1620
2017-10-19T10:49:41.267Z,1588
2017-10-19T10:50:21.903Z,1592
2017-10-19T10:51:05.572Z,1568
2017-10-19T10:51:47.396Z,1508
2017-10-19T10:52:28.529Z,1564
2017-10-19T10:53:10.498Z,1536
2017-10-19T10:53:53.333Z,1520
2017-10-19T10:54:33.898Z,1556
2017-10-19T10:58:37.412Z,1492
2017-10-19T10:59:37.792Z,1504
2017-10-19T11:05:20.470Z,1452
2017-10-19T11:06:23.954Z,1400
2017-10-19T11:07:20.329Z,1380
2017-10-19T11:08:21.545Z,1352
2017-10-19T11:09:26.141Z,1328
2017-10-19T11:17:25.390Z,1468
2017-10-19T11:18:18.184Z,1480
2017-10-19T11:19:00.614Z,1472
2017-10-19T11:19:44.214Z,1440
2017-10-19T11:20:28.658Z,1404
2017-10-19T11:21:11.450Z,1416
2017-10-19T11:21:52.616Z,1484
2017-10-19T11:22:34.816Z,1544
2017-10-19T11:23:17.022Z,1548
2017-10-19T11:24:01.244Z,1544
2017-10-19T11:31:00.692Z,1512
2017-10-19T11:31:44.630Z,1496
2017-10-19T11:32:31.132Z,1484
2017-10-19T11:33:14.238Z,1468
2017-10-19T11:33:55.147Z,1444
2017-10-19T11:34:37.221Z,1444
2017-10-19T11:35:21.815Z,1416
2017-10-19T11:36:07.420Z,1372
2017-10-19T11:36:52.863Z,1292
2017-10-19T11:37:32.250Z,1244
2017-10-19T11:38:15.331Z,1216
2017-10-19T11:38:55.965Z,1264
2017-10-19T11:39:36.766Z,1240
2017-10-19T11:40:17.156Z,1200
2017-10-19T11:40:58.191Z,1180
2017-10-19T11:41:47.712Z,1168
2017-10-19T11:42:32.092Z,1212
2017-10-19T11:43:13.880Z,1232
2017-10-19T11:43:54.521Z,1252
2017-10-19T11:44:44.845Z,1268
2017-10-19T11:45:25.432Z,1272
2017-10-19T11:46:09.552Z,1256
2017-10-19T11:46:56.009Z,1268
2017-10-19T11:49:43.882Z,1244
2017-10-19T11:50:33.811Z,1260
2017-10-19T11:51:15.434Z,1216
2017-10-19T11:51:56.110Z,1252
2017-10-19T11:52:36.957Z,1256
2017-10-19T11:53:17.003Z,1248
2017-10-19T11:53:57.996Z,1196
2017-10-19T11:54:38.990Z,1240
2017-10-19T11:55:19.799Z,1248
2017-10-19T11:56:00.770Z,1252
2017-10-19T11:56:42.173Z,1252
2017-10-19T11:57:22.953Z,1272
2017-10-19T11:58:04.733Z,1276
2017-10-19T11:58:44.379Z,1276
2017-10-19T12:01:10.534Z,1268
2017-10-19T12:01:51.919Z,1260
2017-10-19T12:02:32.455Z,1216
2017-10-19T12:03:13.070Z,1192
2017-10-19T12:03:53.676Z,1228
2017-10-19T12:04:34.881Z,1244
2017-10-19T12:05:15.789Z,1240
2017-10-19T12:05:56.252Z,1244
2017-10-19T12:06:36.626Z,1228
2017-10-19T12:07:17.190Z,1220
2017-10-19T12:07:57.521Z,1216
2017-10-19T12:08:38.781Z,1204
2017-10-19T12:09:18.926Z,1204
2017-10-19T12:12:27.663Z,1260
2017-10-19T12:13:07.551Z,1284
2017-10-19T12:13:48.093Z,1312
2017-10-19T12:14:28.818Z,1328
2017-10-19T12:15:09.815Z,1320
2017-10-19T12:17:48.308Z,1296
2017-10-19T12:18:32.309Z,1276
2017-10-19T12:24:36.205Z,1324
2017-10-19T12:25:18.322Z,1304
2017-10-19T12:28:07.513Z,1344
2017-10-19T12:28:50.379Z,1368
2017-10-19T12:29:31.040Z,1372
2017-10-19T12:30:12.706Z,1392
2017-10-19T12:37:00.508Z,1448
2017-10-19T12:37:41.224Z,1440
2017-10-19T12:38:22.298Z,1440
2017-10-19T12:39:03.647Z,1444
2017-10-19T12:39:44.419Z,1452
2017-10-19T12:40:28.965Z,1480
2017-10-19T12:41:16.554Z,1476
2017-10-19T12:41:57.247Z,1428
2017-10-19T12:42:39.867Z,1416
2017-10-19T12:43:21.010Z,1440
2017-10-19T12:44:02.703Z,1468
2017-10-19T12:44:42.744Z,1456
2017-10-19T12:45:24.312Z,1432
2017-10-19T12:46:04.519Z,1428
2017-10-19T12:46:46.823Z,1444
2017-10-19T12:47:29.237Z,1448
2017-10-19T12:48:10.361Z,1444
2017-10-19T12:48:51.961Z,1432
2017-10-19T12:49:38.113Z,1436
2017-10-19T12:50:19.918Z,1424
2017-10-19T12:51:00.873Z,1396
2017-10-19T12:51:42.751Z,1364
2017-10-19T12:52:23.719Z,1376
2017-10-19T12:53:08.381Z,1368
2017-10-19T12:53:49.444Z,1348
2017-10-19T12:54:30.085Z,1336
2017-10-19T12:55:11.061Z,1332
2017-10-19T12:55:51.661Z,1332
2017-10-19T12:56:34.128Z,1316
2017-10-19T12:57:15.333Z,1296
2017-10-19T12:57:56.747Z,1288
2017-10-19T12:58:37.835Z,1288
2017-10-19T12:59:18.687Z,1280
2017-10-19T12:59:59.283Z,1268
2017-10-19T13:00:39.746Z,1260
2017-10-19T13:01:20.445Z,1260
2017-10-19T13:02:02.165Z,1260
2017-10-19T13:02:42.406Z,1252
2017-10-19T13:03:22.661Z,1248
2017-10-19T13:04:04.676Z,1252
2017-10-19T13:04:44.688Z,1248
2017-10-19T13:05:27.452Z,1248